Hlavní strana
METAR-TAF:

METAR-TAF

Letiště :

Bad Vöslau, Rakousko

zeměpisná šířka: 47-57-52N, zeměpisná délka: 016-15-34E, výška: 233 m

Aktuální stav počasí

Zpráva byla vytvořena před 50 minutami, v 10:00 UTC
Jihojihovýchodní vítr 10 kt s nárazy do 20 kt
Teplota 17°C
Vlhkost vzduchu 34%
Tlak

METAR: LOAV 151000Z 15010G20KT 20KM BKN300CI 17/01

Čas: 12:50 (10:50 UTC)

Předpověď počasí

Zpráva byla vytvořena před 2 hodinami a 50 minutami, v 08:00 UTC
Předpověď platná od 15 v 09 UTC do 15 v 18 UTC
Jihojihovýchodní vítr 8 kt
Viditelnost 10 km a více
Oblačno až skoro zataženo ve výšce 30000 ft
Dočasný
od 15 v 09 UTC do 15 v 16 UTC
Jihojihovýchodní vítr 15 kt s nárazy do 25 kt

TAF: LOAV 150800Z 1509/1518 16008KT 9999 BKN300 TEMPO 1509/1516 16015G25KT

Stav a předpovědi počasí z více než 4 000 letišť (zprávy METAR a TAF).

Červené a žluté tečky na mapě představují dostupné meteorologické stanice.

Když kurzor umístíte na tečku, zobrazí se název stanice.

Pak kliknutím zobrazíte stav a předpověď počasí.

Chcete-li změnit mapu, kliknutím na zelené tlačítko se znaménkem +mapu přiblížíte, kliknutím na zelené tlačítko se znaménkem – mapu oddálíte a kliknutím na zelené šipky přejdete na sousední mapy.


METAR-TAF: